Cayenne, French Guiana
Current Conditions -  °F | °C
As of 5:30 AM on Sunday 23 Nov 2014 (Local Time) from SOCA Reporting Station
Overcast Overcast  
Wind Chill: 75°   Ceiling: 12000
Heat Index: 75°   Visibility: 6mi
Dew Point: 73°   Wind: 3mph
Humidity: 94%   Direction: 220°SW
Pressure: 29.83"   Gusts: NA
Location:  4.92°N, 52.34°W
Report Text: SOCA 230830Z AUTO 22003KT 9999 FEW020/// BKN120/// OVC170///24/23 Q1010
Loading
Personal Weather Stations






























Interactive Weather Map New forecast layout! Learn more

10-Day Weather Forecast

Advertisements
Track Severe Weather on mobile